Terminal Aerodrome Forecast
Issued by NWS Charleston, WV

Current Version | Previous Version | Graphics & Text | Print | Product List | Glossary On
Versions: 1 2 3 4 5 6 7 8 9 10 11 12 13 14 15 16 17 18 19 20 21 22 23 24
100
FTUS41 KRLX 020254 AAA
TAFEKN
TAF AMD
KEKN 020254Z 0203/0224 VRB03KT P6SM SCT025 OVC035
     FM020500 VRB03KT P6SM OVC025
     FM021400 27007KT P6SM OVC015
     FM021800 27009G15KT P6SM BKN025=

USA.gov is the U.S. government's official web portal to all federal, state and local government web resources and services.